Hartsburg, Illinois
Current Conditions -  °F | °C
As of 2:55 PM on Thursday 27 Nov 2014 (Local Time) from KAAA Reporting Station
Overcast Overcast  
Wind Chill: 15°   Ceiling: 2200
Heat Index: 26°   Visibility: 10mi
Dew Point: 17°   Wind: 10mph
Humidity: 71%   Direction: 270°W
Pressure: 30.45"   Gusts: 16mph
Location:  40.25°N, 89.44°W
Report Text: KAAA 272055Z AUTO 27009G14KT 10SM OVC022 M04/M08 A3045 RMK AO2 T10361081
Loading
Personal Weather Stations






























Interactive Weather Map New forecast layout! Learn more

10-Day Weather Forecast

Advertisements
Track Severe Weather on mobile